Weather at Indianapolis International Airport

Public forecast

Using degrees Fahrenheit for public forecast. Weather courtesy of forecast.io.

Current aviation weather report (METAR) for Indianapolis International Airport

2024/07/16 18:54 (retrieved 53 minutes ago)

KIND 161854Z 25017G27KT 10SM FEW041 FEW065 SCT180 BKN230 29/20 A2988 RMK AO2 PK WND 23029/1814 SLP112 T02940200

Aviation forecast (TAF) for Indianapolis International Airport

2024/07/16 18:27 (retrieved 1 hour ago)

TAF KIND 161725Z 1618/1724 26013G22KT P6SM SCT045 BKN250 FM162000 26012G22KT P6SM BKN050 BKN250 FM170000 24012KT P6SM SCT050 SCT250 FM170600 24005KT P6SM VCTS BKN027CB FM171400 29004KT P6SM BKN013 FM171600 30005KT P6SM FEW023 BKN035 FM172000 32004KT P6SM SCT050 SCT250